Currently N/A°F in Beaumont, California, USA
N/A°F Alert
N/A°F / N/A°F
N/A
N/A
Tuesday, May 11, 2021 6:27 AM PDT

Beaumont, California Weather Summary
Last 36 Hours

Temperature Winds Hourly Humidity Dewpoint
Time Report Norm Report Norm Max Gusts Precip. Rpt. Norm Rpt. Norm Pressure
1Thu 01:46 PM  60.4°F  61°F  4 mph S  6 mph  6 mph  0.00"  34%  47%  31°F  40°F  30.22"
Thu 01:00 PM  60.4°F  61°F  4 mph S  6 mph  8 mph  0.00"  34%  48%  31°F  40°F  30.22"
2Thu 12:10 PM  60.4°F  59°F  6 mph S  6 mph  8 mph  ----  37%  50%  33°F  40°F  30.22"
Thu 12:00 PM  59.7°F  59°F  4 mph SE  6 mph  9 mph  0.00"  38%  51%  33°F  40°F  30.22"
Thu 11:00 AM  57.0°F  58°F  4 mph SE  5 mph  8 mph  0.00"  47%  53%  36°F  40°F  30.23"
Thu 10:00 AM  55.6°F  56°F  calm  4 mph  none  0.00"  49%  57%  36°F  40°F  30.23"
Thu 09:00 AM  54.0°F  54°F  calm  3 mph  none  0.00"  47%  60%  33°F  40°F  30.22"
Thu 08:00 AM  49.3°F  51°F  calm  2 mph  none  0.00"  52%  63%  32°F  39°F  30.22"
Thu 07:00 AM  45.7°F  49°F  calm  3 mph  3 mph  0.00"  54%  64%  29°F  37°F  30.21"
3Thu 06:22 AM  44.2°F  49°F  calm  3 mph  3 mph  ----  60%  64%  31°F  37°F  30.20"
Thu 06:00 AM  45.1°F  49°F  calm  3 mph  none  0.00"  60%  64%  31°F  37°F  30.18"
Thu 05:00 AM  46.0°F  49°F  calm  3 mph  none  0.00"  58%  64%  31°F  38°F  30.17"
Thu 04:00 AM  46.9°F  50°F  calm  3 mph  none  0.00"  58%  65%  32°F  38°F  30.18"
Thu 03:00 AM  46.2°F  50°F  calm  3 mph  none  0.00"  62%  65%  33°F  38°F  30.19"
Thu 02:00 AM  46.2°F  50°F  calm  3 mph  none  0.00"  59%  65%  32°F  39°F  30.21"
Thu 01:00 AM  46.9°F  50°F  calm  3 mph  3 mph  0.00"  54%  66%  30°F  39°F  30.21"
Thu 12:01 AM  46.2°F  51°F  calm  3 mph  3 mph  0.00"  58%  66%  32°F  39°F  30.22"
Wed 11:00 PM  46.2°F  51°F  calm  3 mph  1 mph  0.00"  64%  65%  34°F  40°F  30.22"
Wed 10:00 PM  46.6°F  52°F  calm  3 mph  5 mph  0.00"  62%  65%  34°F  40°F  30.22"
Wed 09:00 PM  49.3°F  53°F  calm  3 mph  1 mph  0.00"  55%  63%  33°F  40°F  30.21"
Wed 08:00 PM  49.6°F  55°F  calm  4 mph  none  0.00"  53%  59%  32°F  40°F  30.20"
Wed 07:00 PM  51.8°F  56°F  calm  4 mph  6 mph  0.00"  50%  55%  33°F  40°F  30.20"
Wed 06:00 PM  53.4°F  59°F  2 mph E  4 mph  12 mph  0.00"  44%  50%  31°F  40°F  30.20"
Wed 05:00 PM  54.9°F  61°F  7 mph E  5 mph  13 mph  0.00"  42%  46%  31°F  40°F  30.19"
Wed 04:00 PM  55.0°F  62°F  8 mph E  5 mph  16 mph  0.00"  41%  46%  31°F  40°F  30.21"
Wed 03:00 PM  54.5°F  62°F  6 mph E  5 mph  20 mph  0.00"  43%  46%  32°F  40°F  30.21"
Wed 02:00 PM  54.7°F  62°F  10 mph E  6 mph  20 mph  0.00"  44%  47%  32°F  40°F  30.22"
Wed 01:00 PM  53.4°F  61°F  12 mph SE  6 mph  18 mph  0.00"  46%  47%  32°F  40°F  30.24"
Wed 12:00 PM  51.4°F  59°F  9 mph E  6 mph  18 mph  0.00"  53%  50%  34°F  40°F  30.26"
Wed 11:00 AM  50.4°F  58°F  10 mph E  5 mph  16 mph  0.00"  54%  52%  34°F  40°F  30.25"
Wed 10:00 AM  48.7°F  56°F  5 mph E  5 mph  14 mph  0.00"  54%  55%  32°F  40°F  30.27"
Wed 09:00 AM  46.2°F  54°F  2 mph E  3 mph  9 mph  0.00"  56%  59%  31°F  40°F  30.27"
Wed 08:00 AM  44.6°F  52°F  calm  2 mph  9 mph  0.00"  58%  61%  30°F  38°F  30.26"
Wed 07:00 AM  42.6°F  49°F  3 mph NE  3 mph  9 mph  0.00"  59%  62%  29°F  36°F  30.24"
Wed 06:00 AM  41.7°F  50°F  2 mph NE  3 mph  5 mph  0.00"  61%  62%  29°F  37°F  30.22"
Wed 05:00 AM  38.3°F  50°F  2 mph W  3 mph  3 mph  0.00"  72%  62%  30°F  37°F  30.24"
Wed 04:00 AM  35.8°F  50°F  1 mph W  3 mph  3 mph  0.00"  82%  63%  31°F  37°F  30.23"
Wed 03:00 AM  35.8°F  50°F  2 mph W  3 mph  3 mph  0.00"  84%  63%  31°F  38°F  30.24"
Wed 02:00 AM  35.2°F  51°F  1 mph W  3 mph  3 mph  0.00"  86%  63%  31°F  38°F  30.26"

  1. Current weather data. No green row appears if the current weather data is also the high or low for the current day.
  2. High temperature for the current day.
  3. Low temperature for the current day.

The Beaumont, California weather pages are a service of WeatherCurrents. Cherry Valley is located in northern Riverside County, California, a community of the northern part of Beaumont, along the Interstate 10 highway, in the San Gorgonio pass area, between the communities of Calimesa, Banning.
Copyright ©2021  WeatherCurrents. All rights reserved. - Submit questions and comments - Privacy Policy

This page automatically refreshes every 10 minutes.